createdAt,value
2023-02-20T00:01:52.370Z,100886.41
2023-02-20T00:04:20.707Z,100884.81
2023-02-20T00:06:48.952Z,100885.25
2023-02-20T00:09:17.571Z,100888.81
2023-02-20T00:11:47.003Z,100893.34
2023-02-20T00:14:15.208Z,100897.13
2023-02-20T00:16:43.336Z,100896.38
2023-02-20T00:19:13.143Z,100897.44
2023-02-20T00:21:46.546Z,100895.72
2023-02-20T00:24:17.821Z,100906.75
2023-02-20T00:26:49.545Z,100893.41
2023-02-20T00:29:18.469Z,100911.50
2023-02-20T00:31:52.831Z,100921.41
2023-02-20T00:34:22.533Z,100923.34
2023-02-20T00:36:52.107Z,100922.47
2023-02-20T00:39:20.625Z,100920.13
2023-02-20T00:41:49.622Z,100941.66
2023-02-20T00:44:17.891Z,100932.00
2023-02-20T00:46:46.268Z,100939.41
2023-02-20T00:49:14.470Z,100937.59
2023-02-20T00:51:44.012Z,100932.44
2023-02-20T00:54:12.154Z,100947.72
2023-02-20T00:56:40.276Z,100944.28
2023-02-20T00:59:08.601Z,100943.63
2023-02-20T01:01:36.838Z,100953.53
2023-02-20T01:04:05.194Z,100943.97
2023-02-20T01:06:33.261Z,100940.44
2023-02-20T01:09:02.957Z,100943.22
2023-02-20T01:11:31.116Z,100939.75
2023-02-20T01:13:59.179Z,100937.19
2023-02-20T01:16:27.365Z,100930.94
2023-02-20T01:18:56.720Z,100941.84
2023-02-20T01:21:24.998Z,100948.31
2023-02-20T01:23:53.122Z,100944.00
2023-02-20T01:26:22.603Z,100945.84
2023-02-20T01:28:50.653Z,100951.41
2023-02-20T01:31:19.413Z,100947.97
2023-02-20T01:33:47.616Z,100954.34
2023-02-20T01:36:15.809Z,100969.72
2023-02-20T01:38:44.019Z,100960.03
2023-02-20T01:41:12.829Z,100960.13
2023-02-20T01:43:43.004Z,100961.09
2023-02-20T01:46:45.015Z,100972.09
2023-02-20T01:49:15.921Z,100965.97
2023-02-20T01:51:46.482Z,100978.63
2023-02-20T01:54:17.939Z,100981.56
2023-02-20T01:56:48.705Z,100971.88
2023-02-20T01:59:19.240Z,100987.16
2023-02-20T02:01:47.612Z,100983.81
2023-02-20T02:04:16.465Z,100982.94
2023-02-20T02:06:49.235Z,100976.78
2023-02-20T02:09:24.512Z,100978.72
2023-02-20T02:11:52.654Z,100978.94
2023-02-20T02:14:22.407Z,100975.59
2023-02-20T02:17:03.416Z,100984.63
2023-02-20T02:19:58.181Z,100982.06
2023-02-20T02:23:04.514Z,100984.09
2023-02-20T02:25:41.942Z,100989.47
2023-02-20T02:28:39.314Z,100988.91
2023-02-20T02:31:47.903Z,100996.22
2023-02-20T02:34:57.840Z,100995.47
2023-02-20T02:37:32.746Z,101000.19
2023-02-20T02:40:09.509Z,101010.94
2023-02-20T02:42:47.852Z,101017.28
2023-02-20T02:45:23.997Z,101021.16
2023-02-20T02:47:57.835Z,101020.41
2023-02-20T02:50:30.828Z,101011.56
2023-02-20T02:53:00.566Z,101025.84
2023-02-20T02:55:31.100Z,101031.44
2023-02-20T02:57:59.512Z,101028.88
2023-02-20T03:00:30.819Z,101028.13
2023-02-20T03:03:06.701Z,101034.47
2023-02-20T03:05:46.577Z,101036.34
2023-02-20T03:08:31.833Z,101034.75
2023-02-20T03:11:06.525Z,101028.72
2023-02-20T03:13:56.689Z,101034.09
2023-02-20T03:16:32.096Z,101031.53
2023-02-20T03:19:04.120Z,101027.97
2023-02-20T03:21:34.920Z,101031.72
2023-02-20T03:24:06.195Z,101024.59
2023-02-20T03:26:37.482Z,101023.84
2023-02-20T03:29:13.693Z,101027.63
2023-02-20T03:31:47.203Z,101024.16
2023-02-20T03:34:38.599Z,101023.50
2023-02-20T03:37:28.256Z,101024.34
2023-02-20T03:40:20.852Z,101019.94
2023-02-20T03:43:12.793Z,101024.56
2023-02-20T03:45:43.463Z,101037.25
2023-02-20T03:48:17.673Z,101040.00
2023-02-20T03:51:03.460Z,101042.91
2023-02-20T03:53:32.101Z,101046.66
2023-02-20T03:56:05.844Z,101057.41
2023-02-20T03:58:38.490Z,101059.34
2023-02-20T04:01:09.766Z,101054.81
2023-02-20T04:03:42.378Z,101056.75
2023-02-20T04:06:13.472Z,101052.41
2023-02-20T04:08:47.955Z,101050.81
2023-02-20T04:11:22.359Z,101041.88
2023-02-20T04:13:53.182Z,101033.94
2023-02-20T04:16:22.181Z,101041.13
2023-02-20T04:18:50.652Z,101036.72
2023-02-20T04:21:22.786Z,101032.31
2023-02-20T04:24:00.511Z,101037.97
2023-02-20T04:26:30.464Z,101030.03
2023-02-20T04:28:59.797Z,101042.47
2023-02-20T04:31:28.364Z,101046.13
2023-02-20T04:33:56.642Z,101049.94
2023-02-20T04:36:25.973Z,101057.06
2023-02-20T04:38:54.264Z,101056.09
2023-02-20T04:41:22.438Z,101055.16
2023-02-20T04:44:12.077Z,101058.38
2023-02-20T04:46:40.255Z,101054.34
2023-02-20T04:49:08.458Z,101040.44
2023-02-20T04:51:36.663Z,101034.34
2023-02-20T04:54:04.882Z,101028.59
2023-02-20T04:56:32.934Z,101034.97
2023-02-20T04:59:02.404Z,101040.59
2023-02-20T05:01:30.766Z,101034.59
2023-02-20T05:03:59.031Z,101036.56
2023-02-20T05:06:29.883Z,101032.16
2023-02-20T05:08:59.091Z,101037.50
2023-02-20T05:11:27.186Z,101038.59
2023-02-20T05:13:55.249Z,101042.47
2023-02-20T05:16:24.700Z,101038.91
2023-02-20T05:18:55.797Z,101039.13
2023-02-20T05:21:41.628Z,101034.94
2023-02-20T05:24:09.837Z,101035.56
2023-02-20T05:26:37.984Z,101043.09
2023-02-20T05:29:06.997Z,101059.03
2023-02-20T05:31:36.750Z,101054.50
2023-02-20T05:34:04.940Z,101052.78
2023-02-20T05:36:34.018Z,101058.28
2023-02-20T05:39:02.311Z,101055.91
2023-02-20T05:41:30.638Z,101060.41
2023-02-20T05:43:59.904Z,101063.22
2023-02-20T05:46:29.011Z,101053.09
2023-02-20T05:48:58.564Z,101064.72
2023-02-20T05:51:30.018Z,101074.88
2023-02-20T05:53:58.425Z,101069.72
2023-02-20T05:56:26.711Z,101077.00
2023-02-20T05:58:54.888Z,101077.34
2023-02-20T06:01:25.496Z,101084.66
2023-02-20T06:03:54.426Z,101088.44
2023-02-20T06:06:24.114Z,101084.97
2023-02-20T06:08:52.249Z,101087.13
2023-02-20T06:11:20.586Z,101089.06
2023-02-20T06:13:48.721Z,101085.28
2023-02-20T06:16:23.870Z,101092.78
2023-02-20T06:18:52.252Z,101102.69
2023-02-20T06:21:23.166Z,101098.56
2023-02-20T06:23:53.687Z,101095.09
2023-02-20T06:26:22.821Z,101086.50
2023-02-20T06:28:51.128Z,101089.25
2023-02-20T06:31:24.090Z,101098.31
2023-02-20T06:33:52.618Z,101094.00
2023-02-20T06:36:23.805Z,101104.00
2023-02-20T06:38:56.177Z,101109.59
2023-02-20T06:41:26.084Z,101099.13
2023-02-20T06:43:55.285Z,101106.34
2023-02-20T06:46:23.848Z,101102.03
2023-02-20T06:48:54.253Z,101107.53
2023-02-20T06:51:24.764Z,101107.69
2023-02-20T06:53:55.618Z,101102.53
2023-02-20T06:56:26.214Z,101096.41
2023-02-20T06:58:56.063Z,101108.13
2023-02-20T07:01:26.869Z,101110.03
2023-02-20T07:04:00.219Z,101110.25
2023-02-20T07:06:31.521Z,101113.16
2023-02-20T07:09:01.037Z,101107.00
2023-02-20T07:11:29.169Z,101100.84
2023-02-20T07:13:58.721Z,101091.06
2023-02-20T07:16:26.978Z,101098.38
2023-02-20T07:18:55.174Z,101105.69
2023-02-20T07:21:23.541Z,101102.25
2023-02-20T07:23:52.007Z,101101.56
2023-02-20T07:26:24.524Z,101097.03
2023-02-20T07:28:54.699Z,101097.25
2023-02-20T07:31:23.191Z,101096.41
2023-02-20T07:33:51.674Z,101094.00
2023-02-20T07:36:21.228Z,101101.97
2023-02-20T07:38:55.763Z,101116.38
2023-02-20T07:41:29.512Z,101112.91
2023-02-20T07:43:57.791Z,101115.69
2023-02-20T07:46:33.883Z,101112.25
2023-02-20T07:49:03.048Z,101109.66
2023-02-20T07:51:31.269Z,101114.19
2023-02-20T07:54:00.287Z,101105.38
2023-02-20T07:56:30.632Z,101099.19
2023-02-20T07:59:01.098Z,101105.44
2023-02-20T08:01:30.240Z,101109.19
2023-02-20T08:03:58.525Z,101108.31
2023-02-20T08:06:26.606Z,101111.88
2023-02-20T08:08:54.706Z,101101.22
2023-02-20T08:11:24.047Z,101093.38
2023-02-20T08:13:55.609Z,101096.63
2023-02-20T08:16:24.153Z,101094.91
2023-02-20T08:18:52.334Z,101098.44
2023-02-20T08:21:21.233Z,101098.53
2023-02-20T08:23:52.686Z,101094.03
2023-02-20T08:26:21.142Z,101100.28
2023-02-20T08:28:50.260Z,101095.00
2023-02-20T08:31:31.701Z,101093.28
2023-02-20T08:34:01.064Z,101096.13
2023-02-20T08:36:29.191Z,101086.09
2023-02-20T08:38:57.900Z,101082.53
2023-02-20T08:41:26.147Z,101085.97
2023-02-20T08:43:54.372Z,101079.75
2023-02-20T08:46:23.928Z,101078.03
2023-02-20T08:48:52.321Z,101076.09
2023-02-20T08:51:23.069Z,101080.59
2023-02-20T08:53:51.504Z,101075.25
2023-02-20T08:56:20.524Z,101072.44
2023-02-20T08:58:48.919Z,101078.69
2023-02-20T09:01:17.146Z,101077.81
2023-02-20T09:03:46.876Z,101071.38
2023-02-20T09:06:15.273Z,101072.34
2023-02-20T09:08:43.622Z,101057.19
2023-02-20T09:11:12.240Z,101071.38
2023-02-20T09:13:44.741Z,101062.56
2023-02-20T09:16:13.731Z,101061.50
2023-02-20T09:18:42.012Z,101060.56
2023-02-20T09:21:12.454Z,101041.75
2023-02-20T09:23:41.002Z,101044.34
2023-02-20T09:26:09.131Z,101033.59
2023-02-20T09:28:37.836Z,101046.06
2023-02-20T09:31:06.317Z,101034.47
2023-02-20T09:33:35.331Z,101031.88
2023-02-20T09:36:03.508Z,101029.09
2023-02-20T09:38:33.079Z,101038.00
2023-02-20T09:41:01.692Z,101031.88
2023-02-20T09:43:41.790Z,101040.69
2023-02-20T09:46:16.465Z,101029.94
2023-02-20T09:48:59.365Z,101020.06
2023-02-20T09:51:31.722Z,101033.50
2023-02-20T09:54:07.166Z,101020.91
2023-02-20T09:56:39.625Z,101029.94
2023-02-20T09:59:14.396Z,101017.47
2023-02-20T10:01:47.433Z,101003.94
2023-02-20T10:04:19.136Z,101003.09
2023-02-20T10:06:51.573Z,100992.34
2023-02-20T10:09:21.190Z,100994.81
2023-02-20T10:12:04.431Z,100987.63
2023-02-20T10:14:48.145Z,100984.94
2023-02-20T10:17:30.784Z,100979.88
2023-02-20T10:20:04.194Z,100982.13
2023-02-20T10:22:35.071Z,100990.19
2023-02-20T10:25:17.132Z,100983.22
2023-02-20T10:27:54.040Z,100978.59
2023-02-20T10:30:28.281Z,100978.59
2023-02-20T10:33:02.568Z,100976.69
2023-02-20T10:35:38.368Z,100962.06
2023-02-20T10:38:11.641Z,100954.88
2023-02-20T10:40:47.950Z,100956.28
2023-02-20T10:43:21.471Z,100951.78
2023-02-20T10:46:00.014Z,100934.34
2023-02-20T10:48:33.560Z,100931.69
2023-02-20T10:51:07.706Z,100917.94
2023-02-20T10:53:44.438Z,100920.75
2023-02-20T10:56:21.840Z,100912.56
2023-02-20T10:58:58.685Z,100906.22
2023-02-20T11:01:29.325Z,100916.75
2023-02-20T11:04:03.748Z,100904.72
2023-02-20T11:06:38.141Z,100901.94
2023-02-20T11:09:08.462Z,100902.69
2023-02-20T11:11:42.197Z,100883.63
2023-02-20T11:14:13.850Z,100884.50
2023-02-20T11:16:47.415Z,100879.97
2023-02-20T11:19:22.772Z,100883.22
2023-02-20T11:21:54.213Z,100873.44
2023-02-20T11:24:29.442Z,100853.53
2023-02-20T11:27:08.185Z,100852.44
2023-02-20T11:29:41.591Z,100861.06
2023-02-20T11:32:32.853Z,100861.06
2023-02-20T11:35:22.139Z,100863.63
2023-02-20T11:37:55.877Z,100860.94
2023-02-20T11:40:29.230Z,100852.03
2023-02-20T11:43:12.069Z,100845.44
2023-02-20T11:45:40.936Z,100842.75
2023-02-20T11:48:13.323Z,100829.00
2023-02-20T11:50:44.934Z,100813.53
2023-02-20T11:53:22.349Z,100811.16
2023-02-20T11:56:00.010Z,100801.91
2023-02-20T11:58:30.996Z,100803.38
2023-02-20T12:00:59.304Z,100802.41
2023-02-20T12:03:29.630Z,100788.09
2023-02-20T12:06:00.387Z,100788.72
2023-02-20T12:08:48.825Z,100776.06
2023-02-20T12:11:19.377Z,100759.69
2023-02-20T12:13:51.263Z,100751.38
2023-02-20T12:16:35.735Z,100755.19
2023-02-20T12:19:13.789Z,100751.22
2023-02-20T12:21:55.847Z,100742.78
2023-02-20T12:24:42.397Z,100740.72
2023-02-20T12:27:42.112Z,100734.38
2023-02-20T12:30:26.902Z,100735.22
2023-02-20T12:33:10.873Z,100735.84
2023-02-20T12:35:51.750Z,100724.84
2023-02-20T12:38:40.771Z,100737.97
2023-02-20T12:41:29.137Z,100721.69
2023-02-20T12:44:21.732Z,100726.94
2023-02-20T12:47:03.320Z,100720.72
2023-02-20T12:49:52.416Z,100724.13
2023-02-20T12:52:39.335Z,100715.84
2023-02-20T12:55:20.260Z,100713.88
2023-02-20T12:58:02.192Z,100710.22
2023-02-20T13:00:34.490Z,100716.34
2023-02-20T13:03:11.266Z,100715.47
2023-02-20T13:05:43.688Z,100702.00
2023-02-20T13:08:15.915Z,100707.28
2023-02-20T13:10:53.160Z,100714.38
2023-02-20T13:13:22.168Z,100705.56
2023-02-20T13:16:00.087Z,100716.22
2023-02-20T13:18:38.044Z,100710.09
2023-02-20T13:21:11.340Z,100698.47
2023-02-20T13:23:42.200Z,100694.06
2023-02-20T13:26:48.665Z,100691.50
2023-02-20T13:29:21.243Z,100689.66
2023-02-20T13:31:52.871Z,100679.88
2023-02-20T13:34:40.958Z,100679.13
2023-02-20T13:37:42.077Z,100668.59
2023-02-20T13:40:39.576Z,100667.72
2023-02-20T13:43:28.201Z,100675.69
2023-02-20T13:46:25.001Z,100675.69
2023-02-20T13:48:56.721Z,100673.97
2023-02-20T13:51:36.985Z,100675.69
2023-02-20T13:54:26.782Z,100660.88
2023-02-20T13:56:59.709Z,100656.97
2023-02-20T13:59:29.594Z,100645.34
2023-02-20T14:02:03.238Z,100632.00
2023-02-20T14:04:32.489Z,100636.53
2023-02-20T14:07:03.861Z,100630.41
2023-02-20T14:09:32.360Z,100630.53
2023-02-20T14:12:13.456Z,100645.06
2023-02-20T14:14:45.960Z,100638.72
2023-02-20T14:17:19.362Z,100655.97
2023-02-20T14:19:59.505Z,100653.38
2023-02-20T14:22:35.884Z,100657.91
2023-02-20T14:25:25.035Z,100652.78
2023-02-20T14:27:53.529Z,100628.56
2023-02-20T14:30:26.111Z,100629.63
2023-02-20T14:32:56.841Z,100636.84
2023-02-20T14:35:37.246Z,100624.25
2023-02-20T14:38:20.568Z,100619.84
2023-02-20T14:40:51.017Z,100607.38
2023-02-20T14:43:21.554Z,100599.44
2023-02-20T14:46:00.993Z,100605.53
2023-02-20T14:48:31.700Z,100614.72
2023-02-20T14:51:14.529Z,100603.94
2023-02-20T14:53:44.570Z,100611.03
2023-02-20T14:56:15.737Z,100607.63
2023-02-20T14:58:44.846Z,100607.63
2023-02-20T15:01:37.489Z,100610.44
2023-02-20T15:04:12.481Z,100607.88
2023-02-20T15:06:43.897Z,100592.66
2023-02-20T15:09:22.388Z,100593.66
2023-02-20T15:11:54.907Z,100595.63
2023-02-20T15:14:26.757Z,100592.06
2023-02-20T15:17:21.973Z,100588.53
2023-02-20T15:19:50.733Z,100580.69
2023-02-20T15:22:33.303Z,100579.97
2023-02-20T15:25:29.706Z,100583.38
2023-02-20T15:28:06.175Z,100578.22
2023-02-20T15:30:35.035Z,100574.59
2023-02-20T15:33:03.725Z,100564.78
2023-02-20T15:35:35.679Z,100565.75
2023-02-20T15:38:08.013Z,100564.03
2023-02-20T15:40:37.990Z,100558.66
2023-02-20T15:43:24.009Z,100557.94
2023-02-20T15:46:00.480Z,100554.38
2023-02-20T15:48:29.273Z,100547.41
2023-02-20T15:50:57.581Z,100536.78
2023-02-20T15:53:30.102Z,100535.81
2023-02-20T15:56:01.939Z,100536.78
2023-02-20T15:58:35.451Z,100528.81
2023-02-20T16:01:04.058Z,100525.38
2023-02-20T16:03:42.027Z,100520.00
2023-02-20T16:06:19.852Z,100512.06
2023-02-20T16:08:50.333Z,100511.44
2023-02-20T16:11:21.791Z,100499.72
2023-02-20T16:13:56.136Z,100500.69
2023-02-20T16:16:27.641Z,100499.94
2023-02-20T16:18:57.083Z,100495.53
2023-02-20T16:21:26.274Z,100495.53
2023-02-20T16:23:54.533Z,100485.75
2023-02-20T16:26:26.699Z,100482.22
2023-02-20T16:28:59.016Z,100490.41
2023-02-20T16:32:07.668Z,100480.75
2023-02-20T16:34:37.961Z,100470.00
2023-02-20T16:37:09.036Z,100469.34
2023-02-20T16:39:39.085Z,100462.28
2023-02-20T16:42:23.261Z,100469.34
2023-02-20T16:44:55.039Z,100465.03
2023-02-20T16:47:26.388Z,100464.19
2023-02-20T16:49:54.736Z,100460.66
2023-02-20T16:52:27.902Z,100461.63
2023-02-20T16:54:57.127Z,100455.53
2023-02-20T16:57:27.619Z,100468.09
2023-02-20T17:00:01.478Z,100458.44
2023-02-20T17:02:36.577Z,100454.88
2023-02-20T17:05:04.902Z,100452.19
2023-02-20T17:07:33.169Z,100451.34
2023-02-20T17:10:02.773Z,100456.59
2023-02-20T17:12:34.002Z,100458.09
2023-02-20T17:15:05.031Z,100458.59
2023-02-20T17:17:33.720Z,100451.44
2023-02-20T17:20:03.740Z,100442.50
2023-02-20T17:22:32.766Z,100437.88
2023-02-20T17:25:01.089Z,100438.84
2023-02-20T17:27:29.442Z,100440.53
2023-02-20T17:30:03.288Z,100449.34
2023-02-20T17:32:33.410Z,100445.66
2023-02-20T17:35:01.776Z,100450.03
2023-02-20T17:37:30.597Z,100442.03
2023-02-20T17:39:59.523Z,100438.50
2023-02-20T17:42:28.808Z,100439.19
2023-02-20T17:44:57.236Z,100444.91
2023-02-20T17:47:27.536Z,100449.16
2023-02-20T17:49:57.295Z,100456.19
2023-02-20T17:52:25.837Z,100447.06
2023-02-20T17:54:56.062Z,100447.88
2023-02-20T17:57:24.750Z,100444.25
2023-02-20T17:59:56.738Z,100436.34
2023-02-20T18:02:26.573Z,100440.84
2023-02-20T18:04:55.304Z,100440.91
2023-02-20T18:07:26.029Z,100430.53
2023-02-20T18:09:57.154Z,100421.19
2023-02-20T18:12:25.725Z,100416.38
2023-02-20T18:14:54.725Z,100416.81
2023-02-20T18:17:23.318Z,100409.59
2023-02-20T18:19:53.038Z,100416.41
2023-02-20T18:22:21.309Z,100409.88
2023-02-20T18:24:49.965Z,100396.25
2023-02-20T18:27:18.287Z,100394.28
2023-02-20T18:29:46.641Z,100397.41
2023-02-20T18:32:14.891Z,100389.75
2023-02-20T18:34:43.373Z,100389.19
2023-02-20T18:37:14.510Z,100389.50
2023-02-20T18:39:45.461Z,100379.84
2023-02-20T18:42:13.950Z,100380.97
2023-02-20T18:44:42.451Z,100369.63
2023-02-20T18:47:10.796Z,100366.25
2023-02-20T18:49:39.422Z,100362.84
2023-02-20T18:52:09.149Z,100363.13
2023-02-20T18:54:38.965Z,100354.88
2023-02-20T18:57:07.384Z,100353.28
2023-02-20T18:59:35.841Z,100353.44
2023-02-20T19:02:06.005Z,100355.44
2023-02-20T19:04:34.815Z,100346.59
2023-02-20T19:07:04.160Z,100348.84
2023-02-20T19:09:36.797Z,100343.13
2023-02-20T19:12:08.259Z,100327.91
2023-02-20T19:14:37.535Z,100336.59
2023-02-20T19:17:07.545Z,100336.59
2023-02-20T19:19:36.093Z,100332.03
2023-02-20T19:22:04.936Z,100334.59
2023-02-20T19:24:33.511Z,100329.34
2023-02-20T19:27:01.635Z,100335.31
2023-02-20T19:29:32.304Z,100318.91
2023-02-20T19:32:01.516Z,100319.50
2023-02-20T19:34:31.199Z,100315.47
2023-02-20T19:37:01.148Z,100312.34
2023-02-20T19:39:29.904Z,100304.63
2023-02-20T19:41:58.350Z,100306.94
2023-02-20T19:44:28.488Z,100305.94
2023-02-20T19:46:58.307Z,100301.22
2023-02-20T19:49:27.474Z,100303.91
2023-02-20T19:51:56.540Z,100283.88
2023-02-20T19:54:27.779Z,100290.97
2023-02-20T19:56:59.257Z,100284.16
2023-02-20T19:59:28.459Z,100282.03
2023-02-20T20:02:00.290Z,100279.63
2023-02-20T20:04:32.057Z,100274.53
2023-02-20T20:07:02.578Z,100279.34
2023-02-20T20:09:36.544Z,100275.09
2023-02-20T20:12:28.985Z,100273.09
2023-02-20T20:14:57.285Z,100268.09
2023-02-20T20:17:27.081Z,100263.41
2023-02-20T20:19:59.544Z,100259.38
2023-02-20T20:22:29.133Z,100272.63
2023-02-20T20:24:57.464Z,100262.50
2023-02-20T20:27:25.754Z,100262.22
2023-02-20T20:29:55.537Z,100258.25
2023-02-20T20:32:24.481Z,100265.88
2023-02-20T20:34:55.632Z,100256.75
2023-02-20T20:37:25.402Z,100259.56
2023-02-20T20:39:58.296Z,100261.81
2023-02-20T20:42:29.108Z,100268.66
2023-02-20T20:44:59.516Z,100263.78
2023-02-20T20:47:29.475Z,100264.34
2023-02-20T20:50:01.762Z,100258.59
2023-02-20T20:52:31.386Z,100256.00
2023-02-20T20:55:01.550Z,100255.69
2023-02-20T20:57:31.527Z,100262.50
2023-02-20T21:00:01.134Z,100255.25
2023-02-20T21:02:32.382Z,100248.25
2023-02-20T21:05:11.212Z,100249.56
2023-02-20T21:07:40.111Z,100250.59
2023-02-20T21:10:09.381Z,100248.31
2023-02-20T21:12:40.816Z,100248.94
2023-02-20T21:15:10.698Z,100251.25
2023-02-20T21:17:42.280Z,100232.19
2023-02-20T21:20:16.211Z,100252.31
2023-02-20T21:22:44.453Z,100237.13
2023-02-20T21:25:12.769Z,100241.00
2023-02-20T21:27:41.186Z,100233.44
2023-02-20T21:30:10.916Z,100227.06
2023-02-20T21:32:40.367Z,100240.06
2023-02-20T21:35:08.711Z,100225.03
2023-02-20T21:37:38.320Z,100241.38
2023-02-20T21:40:07.547Z,100241.84
2023-02-20T21:42:56.260Z,100240.72
2023-02-20T21:45:24.399Z,100244.03
2023-02-20T21:47:52.635Z,100237.50
2023-02-20T21:50:22.224Z,100245.19
2023-02-20T21:52:51.803Z,100241.06
2023-02-20T21:55:20.024Z,100249.50
2023-02-20T21:57:56.019Z,100243.94
2023-02-20T22:00:23.119Z,100238.78
2023-02-20T22:02:50.277Z,100232.69
2023-02-20T22:05:17.281Z,100229.44
2023-02-20T22:08:02.734Z,100217.19
2023-02-20T22:10:50.693Z,100208.41
2023-02-20T22:13:36.705Z,100199.88
2023-02-20T22:16:22.804Z,100191.06
2023-02-20T22:19:08.569Z,100187.94
2023-02-20T22:21:54.162Z,100187.22
2023-02-20T22:24:39.698Z,100186.50
2023-02-20T22:27:27.830Z,100176.13
2023-02-20T22:30:14.276Z,100172.88
2023-02-20T22:33:00.641Z,100174.00
2023-02-20T22:35:46.030Z,100169.06
2023-02-20T22:38:31.925Z,100155.84
2023-02-20T22:41:18.146Z,100156.41
2023-02-20T22:44:05.179Z,100165.50
2023-02-20T22:46:54.097Z,100160.41
2023-02-20T22:49:39.713Z,100158.13
2023-02-20T22:52:25.043Z,100147.63
2023-02-20T22:55:14.628Z,100150.47
2023-02-20T22:58:00.550Z,100159.00
2023-02-20T23:00:47.876Z,100153.03
2023-02-20T23:03:33.545Z,100158.69
2023-02-20T23:06:20.017Z,100152.75
2023-02-20T23:09:06.906Z,100157.28
2023-02-20T23:11:53.920Z,100157.59
2023-02-20T23:14:40.157Z,100160.53
2023-02-20T23:17:37.152Z,100161.69
2023-02-20T23:20:26.484Z,100154.75
2023-02-20T23:23:12.298Z,100151.59
2023-02-20T23:25:57.656Z,100150.91
2023-02-20T23:28:43.134Z,100149.34
2023-02-20T23:31:28.945Z,100150.50
2023-02-20T23:34:16.253Z,100154.16
2023-02-20T23:37:04.520Z,100143.78
2023-02-20T23:39:50.463Z,100161.97
2023-02-20T23:42:36.824Z,100151.34
2023-02-20T23:45:23.761Z,100144.50
2023-02-20T23:48:09.153Z,100157.28
2023-02-20T23:50:56.294Z,100146.59
2023-02-20T23:53:42.131Z,100150.44
2023-02-20T23:56:27.773Z,100143.44
2023-02-20T23:59:16.474Z,100136.50
